Time;durP1;ratioP1;P1;durP2;ratioP2;P2;SDS_P1;SDS_P2;PMS_P1;PMS_P2;Temp;Humidity;BMP_temperature;BMP_pressure;BME280_temperature;BME280_humidity;BME280_pressure;Samples;Min_cycle;Max_cycle;Signal;HPM_P1;HPM_P2
2021/12/07 00:00:17;;;;;;;;;;;1.00;99.90;;;;;;4815529;29;19917;-86
2021/12/07 00:02:42;;;;;;;;;;;1.00;99.90;;;;;;4808825;29;19909;-86
2021/12/07 00:05:08;;;;;;;;;;;1.00;99.90;;;;;;4808459;29;20392;-86
2021/12/07 00:07:34;;;;;;;;;;;1.00;99.90;;;;;;4805768;29;19928;-86
2021/12/07 00:09:59;;;;;;;;;;;1.00;99.90;;;;;;4808830;29;19913;-86
2021/12/07 00:12:33;;;;;;;;;;;0.90;99.90;;;;;;4808068;29;19917;-86
2021/12/07 00:15:02;;;;;;;;;;;0.90;99.90;;;;;;4807877;29;19919;-86
2021/12/07 00:17:27;;;;;;;;;;;0.90;99.90;;;;;;4809359;29;19956;-86
2021/12/07 00:19:52;;;;;;;;;;;0.80;99.90;;;;;;4808134;29;20436;-85
2021/12/07 00:22:18;;;;;;;;;;;0.80;99.90;;;;;;4814885;29;19913;-85
2021/12/07 00:24:44;;;;;;;;;;;0.80;99.90;;;;;;4809272;29;19936;-85
2021/12/07 00:27:09;;;;;;;;;;;0.70;99.90;;;;;;4808842;29;19985;-85
2021/12/07 00:29:35;;;;;;;;;;;0.70;99.90;;;;;;4811384;29;19912;-86
2021/12/07 00:35:11;;;;;;;;;;;0.60;99.90;;;;;;4810483;29;20050;-87
2021/12/07 00:37:33;;;;;;;;;;;0.60;99.90;;;;;;4811198;29;19919;-86
2021/12/07 00:39:59;;;;;;;;;;;0.60;99.90;;;;;;4816952;29;20189;-87
2021/12/07 00:42:24;;;;;;;;;;;0.50;99.90;;;;;;4808104;29;19952;-86
2021/12/07 00:44:50;;;;;;;;;;;0.60;99.90;;;;;;4812035;29;19955;-86
2021/12/07 00:47:16;;;;;;;;;;;0.50;99.90;;;;;;4811559;29;19990;-87
2021/12/07 00:49:42;;;;;;;;;;;0.40;99.90;;;;;;4811248;29;19916;-86
2021/12/07 00:52:07;;;;;;;;;;;0.40;99.90;;;;;;4809452;29;19917;-86
2021/12/07 00:54:33;;;;;;;;;;;0.40;99.90;;;;;;4807899;29;19917;-87
2021/12/07 00:56:59;;;;;;;;;;;0.40;99.90;;;;;;4805766;29;19912;-87
2021/12/07 00:59:25;;;;;;;;;;;0.30;99.90;;;;;;4809920;29;20012;-87
2021/12/07 01:01:51;;;;;;;;;;;0.30;99.90;;;;;;4808628;29;20448;-87
2021/12/07 01:04:17;;;;;;;;;;;0.20;99.90;;;;;;4814208;29;19909;-86
2021/12/07 01:07:01;;;;;;;;;;;0.30;99.90;;;;;;4806980;29;19916;-87
2021/12/07 01:24:40;;;;;;;;;;;0.20;99.90;;;;;;4809453;29;19917;-87
2021/12/07 01:27:03;;;;;;;;;;;0.20;99.90;;;;;;4809214;29;19931;-86
2021/12/07 01:29:29;;;;;;;;;;;0.30;99.90;;;;;;4802745;29;19999;-87
2021/12/07 01:32:37;;;;;;;;;;;0.30;99.90;;;;;;4806559;29;20003;-87
2021/12/07 01:37:53;;;;;;;;;;;0.20;99.90;;;;;;4806428;29;19996;-87
2021/12/07 02:00:22;;;;;;;;;;;0.10;99.90;;;;;;4808258;29;20012;-87
2021/12/07 02:02:47;;;;;;;;;;;0.00;99.90;;;;;;4815942;29;19912;-87
2021/12/07 02:05:13;;;;;;;;;;;0.00;99.90;;;;;;4808201;29;20502;-86
2021/12/07 02:07:39;;;;;;;;;;;-0.10;99.90;;;;;;4812699;29;19927;-86
2021/12/07 02:10:10;;;;;;;;;;;-0.10;99.90;;;;;;4808872;29;19924;-87
2021/12/07 02:12:43;;;;;;;;;;;0.00;99.90;;;;;;4806940;29;20007;-87
2021/12/07 02:15:12;;;;;;;;;;;0.00;99.90;;;;;;4807240;29;20296;-86
2021/12/07 02:17:38;;;;;;;;;;;-0.10;99.90;;;;;;4804353;29;19909;-87
2021/12/07 02:20:04;;;;;;;;;;;0.00;99.90;;;;;;4809429;29;19916;-86
2021/12/07 02:22:30;;;;;;;;;;;-0.10;99.90;;;;;;4805743;29;19978;-86
2021/12/07 02:24:55;;;;;;;;;;;-0.10;99.90;;;;;;4806202;29;19952;-87
2021/12/07 02:27:21;;;;;;;;;;;-0.10;99.90;;;;;;4797604;29;19928;-87
2021/12/07 02:29:47;;;;;;;;;;;-0.10;99.90;;;;;;4803285;29;19908;-87
2021/12/07 02:32:12;;;;;;;;;;;-0.20;99.90;;;;;;4808002;29;19969;-87
2021/12/07 02:34:43;;;;;;;;;;;-0.20;99.90;;;;;;4808605;29;19917;-87
2021/12/07 02:37:09;;;;;;;;;;;-0.20;99.90;;;;;;4814060;29;19916;-86
2021/12/07 02:39:36;;;;;;;;;;;-0.20;99.90;;;;;;4808973;29;20136;-87
2021/12/07 02:42:02;;;;;;;;;;;-0.10;99.90;;;;;;4807410;29;19917;-87
2021/12/07 02:44:28;;;;;;;;;;;-0.20;99.90;;;;;;4805355;29;19920;-87
2021/12/07 02:46:53;;;;;;;;;;;-0.20;99.90;;;;;;4805711;29;19916;-87
2021/12/07 02:49:44;;;;;;;;;;;-0.10;99.90;;;;;;4804370;29;19940;-87
2021/12/07 02:52:35;;;;;;;;;;;-0.20;99.90;;;;;;4815964;29;20434;-86
2021/12/07 02:55:26;;;;;;;;;;;-0.30;99.90;;;;;;4809654;29;20448;-87
2021/12/07 02:58:17;;;;;;;;;;;-0.30;99.90;;;;;;4805873;29;20437;-87
2021/12/07 03:01:14;;;;;;;;;;;-0.30;99.90;;;;;;4802744;29;19913;-87
2021/12/07 03:04:10;;;;;;;;;;;-0.30;99.90;;;;;;4793193;29;19917;-86
2021/12/07 03:08:05;;;;;;;;;;;-0.30;99.90;;;;;;4805781;29;20291;-86
2021/12/07 03:28:54;;;;;;;;;;;-0.20;99.90;;;;;;4809285;29;19928;-87
2021/12/07 03:31:45;;;;;;;;;;;-0.20;99.90;;;;;;4811448;29;20410;-87
2021/12/07 03:34:36;;;;;;;;;;;-0.30;99.90;;;;;;4814713;29;19920;-87
2021/12/07 03:37:27;;;;;;;;;;;-0.30;99.90;;;;;;4814125;29;20327;-88
2021/12/07 03:40:18;;;;;;;;;;;-0.30;99.90;;;;;;4812601;29;19947;-87
2021/12/07 03:43:10;;;;;;;;;;;-0.30;99.90;;;;;;4815809;29;20278;-88
2021/12/07 03:46:01;;;;;;;;;;;-0.30;99.90;;;;;;4808177;29;19917;-88
2021/12/07 03:48:52;;;;;;;;;;;-0.30;99.90;;;;;;4804569;29;20309;-90
2021/12/07 03:51:43;;;;;;;;;;;-0.30;99.90;;;;;;4809916;29;19909;-89
2021/12/07 03:54:34;;;;;;;;;;;-0.20;99.90;;;;;;4815024;29;19908;-89
2021/12/07 03:57:24;;;;;;;;;;;-0.20;99.90;;;;;;4808396;29;19996;-89
2021/12/07 04:00:16;;;;;;;;;;;-0.20;99.90;;;;;;4806818;29;19967;-88
2021/12/07 04:03:12;;;;;;;;;;;-0.20;99.90;;;;;;4804984;29;19917;-90
2021/12/07 04:06:06;;;;;;;;;;;-0.20;99.90;;;;;;4805362;29;20301;-89
2021/12/07 04:08:57;;;;;;;;;;;-0.20;99.90;;;;;;4815673;29;19972;-90
2021/12/07 04:11:48;;;;;;;;;;;-0.30;99.90;;;;;;4805192;29;20459;-90
2021/12/07 04:14:40;;;;;;;;;;;-0.20;99.90;;;;;;4801250;29;19923;-90
2021/12/07 04:17:31;;;;;;;;;;;-0.20;99.90;;;;;;4813714;29;19912;-89
2021/12/07 04:20:22;;;;;;;;;;;-0.20;99.90;;;;;;4803443;29;20445;-89
2021/12/07 04:23:13;;;;;;;;;;;-0.20;99.90;;;;;;4813257;29;19920;-89
2021/12/07 04:26:04;;;;;;;;;;;-0.20;99.90;;;;;;4809247;29;20443;-89
2021/12/07 04:28:55;;;;;;;;;;;-0.20;99.90;;;;;;4814714;29;19929;-90
2021/12/07 04:31:46;;;;;;;;;;;-0.20;99.90;;;;;;4809230;29;20374;-89
2021/12/07 04:34:37;;;;;;;;;;;-0.10;99.90;;;;;;4799002;29;19939;-89
2021/12/07 04:37:28;;;;;;;;;;;-0.20;99.90;;;;;;4806591;29;19924;-89
2021/12/07 04:40:19;;;;;;;;;;;-0.10;99.90;;;;;;4814436;29;19917;-90
2021/12/07 04:43:10;;;;;;;;;;;-0.10;99.90;;;;;;4798733;29;20429;-89
2021/12/07 04:58:10;;;;;;;;;;;-0.10;99.90;;;;;;4809892;29;19920;-86
2021/12/07 05:01:06;;;;;;;;;;;-0.10;99.90;;;;;;4798454;29;20100;-86
